Time;durP1;ratioP1;P1;durP2;ratioP2;P2;SDS_P1;SDS_P2;PMS_P1;PMS_P2;Temp;Humidity;BMP_temperature;BMP_pressure;BME280_temperature;BME280_humidity;BME280_pressure;Samples;Min_cycle;Max_cycle;Signal;HPM_P1;HPM_P2
2023/08/08 00:02:02;;;;;;;1999.90;999.90;;;13.40;99.90;;;;;;5079428;28;20539;-67
2023/08/08 00:04:28;;;;;;;1999.90;999.90;;;13.40;99.90;;;;;;5080581;28;20044;-67
2023/08/08 00:06:54;;;;;;;1999.90;999.90;;;13.40;99.90;;;;;;5101591;28;20101;-67
2023/08/08 00:09:19;;;;;;;1999.90;999.90;;;13.50;99.90;;;;;;5091218;28;20036;-67
2023/08/08 00:11:45;;;;;;;1999.90;999.90;;;13.50;99.90;;;;;;5074865;28;20576;-68
2023/08/08 00:14:11;;;;;;;1999.90;999.90;;;13.50;99.90;;;;;;5084641;28;20101;-67
2023/08/08 00:16:36;;;;;;;1999.90;999.90;;;13.50;99.90;;;;;;5060598;28;20048;-67
2023/08/08 00:19:03;;;;;;;1999.90;999.90;;;13.50;99.90;;;;;;5087382;28;20079;-67
2023/08/08 00:21:28;;;;;;;1999.90;999.90;;;13.50;99.90;;;;;;5079322;28;20044;-67
2023/08/08 00:23:54;;;;;;;1999.90;999.90;;;13.50;99.90;;;;;;5085344;28;20478;-67
2023/08/08 00:26:20;;;;;;;1999.90;999.90;;;13.40;99.90;;;;;;5087462;28;20044;-67
2023/08/08 00:28:45;;;;;;;1999.90;999.90;;;13.40;99.90;;;;;;5087221;28;20044;-67
2023/08/08 00:31:11;;;;;;;1999.90;999.90;;;13.40;99.90;;;;;;5103376;28;20047;-67
2023/08/08 00:33:36;;;;;;;1999.90;999.90;;;13.40;99.90;;;;;;5102055;28;20036;-67
2023/08/08 00:36:02;;;;;;;1999.90;999.90;;;13.40;99.90;;;;;;5076854;28;20137;-67
2023/08/08 00:38:28;;;;;;;1999.90;999.90;;;13.40;99.90;;;;;;5083805;28;20495;-67
2023/08/08 00:40:54;;;;;;;1999.90;999.90;;;13.40;99.90;;;;;;5088474;28;20039;-67
2023/08/08 00:43:19;;;;;;;1999.90;999.90;;;13.40;99.90;;;;;;5070813;28;20082;-67
2023/08/08 00:45:45;;;;;;;1999.90;999.90;;;13.40;99.90;;;;;;5078908;28;20492;-68
2023/08/08 00:48:11;;;;;;;1999.90;999.90;;;13.50;99.90;;;;;;5095583;27;20510;-67
2023/08/08 00:50:37;;;;;;;1999.90;999.90;;;13.50;99.90;;;;;;5098973;28;20501;-67
2023/08/08 00:53:06;;;;;;;1999.90;999.90;;;13.50;99.90;;;;;;5085523;28;20032;-66
2023/08/08 00:55:32;;;;;;;1999.90;999.90;;;13.50;99.90;;;;;;5096482;28;20043;-67
2023/08/08 00:57:57;;;;;;;1999.90;999.90;;;13.50;99.90;;;;;;5087281;28;20037;-67
2023/08/08 01:00:23;;;;;;;1999.90;999.90;;;13.50;99.90;;;;;;5088449;28;20067;-67
2023/08/08 01:02:49;;;;;;;1999.90;999.90;;;13.50;99.90;;;;;;5083100;28;20044;-67
2023/08/08 01:05:14;;;;;;;1999.90;999.90;;;13.50;99.90;;;;;;5083827;28;20137;-67
2023/08/08 01:07:57;;;;;;;1999.90;999.90;;;13.50;99.90;;;;;;5088170;28;20075;-67
2023/08/08 01:10:30;;;;;;;1999.90;999.90;;;13.50;99.90;;;;;;5087635;28;20043;-67
2023/08/08 01:13:00;;;;;;;1999.90;999.90;;;13.50;99.90;;;;;;5083621;28;20040;-67
2023/08/08 01:15:26;;;;;;;1999.90;999.90;;;13.50;99.90;;;;;;5085259;28;20047;-67
2023/08/08 01:17:53;;;;;;;1999.90;999.90;;;13.50;99.90;;;;;;5063909;28;20123;-67
2023/08/08 01:20:19;;;;;;;1999.90;999.90;;;13.50;99.90;;;;;;5057067;28;20040;-67
2023/08/08 01:23:11;;;;;;;1999.90;999.90;;;13.40;99.90;;;;;;5082904;28;20044;-67
2023/08/08 01:25:37;;;;;;;1999.90;999.90;;;13.40;99.90;;;;;;5100673;27;20055;-67
2023/08/08 01:28:05;;;;;;;1999.90;999.90;;;13.30;99.90;;;;;;5089941;28;20036;-67
2023/08/08 01:30:30;;;;;;;1999.90;999.90;;;13.30;99.90;;;;;;5076079;28;20048;-67
2023/08/08 01:32:56;;;;;;;1999.90;999.90;;;13.30;99.90;;;;;;5101614;27;20043;-67
2023/08/08 01:35:23;;;;;;;1999.90;999.90;;;13.30;99.90;;;;;;5087259;28;20048;-67
2023/08/08 01:37:54;;;;;;;1999.90;999.90;;;13.20;99.90;;;;;;5079063;28;20044;-67
2023/08/08 01:40:21;;;;;;;1999.90;999.90;;;13.20;99.90;;;;;;5086255;28;20081;-67
2023/08/08 01:42:48;;;;;;;1999.90;999.90;;;13.20;99.90;;;;;;5086129;28;20043;-67
2023/08/08 01:45:16;;;;;;;1999.90;999.90;;;13.20;99.90;;;;;;5089628;28;20093;-67
2023/08/08 01:47:42;;;;;;;1999.90;999.90;;;13.20;99.90;;;;;;5086567;28;20036;-67
2023/08/08 01:50:08;;;;;;;1999.90;999.90;;;13.20;99.90;;;;;;5101766;27;20153;-67
2023/08/08 01:52:34;;;;;;;1999.90;999.90;;;13.20;99.90;;;;;;5087501;28;20393;-67
2023/08/08 01:55:00;;;;;;;1999.90;999.90;;;13.20;99.90;;;;;;5077673;28;20044;-67
2023/08/08 01:57:26;;;;;;;1999.90;999.90;;;13.20;99.90;;;;;;5085013;28;20101;-67
2023/08/08 01:59:52;;;;;;;1999.90;999.90;;;13.20;99.90;;;;;;5086809;28;20574;-67
2023/08/08 02:02:17;;;;;;;1999.90;999.90;;;13.20;99.90;;;;;;5080374;28;20047;-67
2023/08/08 02:04:43;;;;;;;1999.90;999.90;;;13.20;99.90;;;;;;5084575;28;20147;-67
2023/08/08 02:07:09;;;;;;;1999.90;999.90;;;13.20;99.90;;;;;;5085660;28;20543;-67
2023/08/08 02:09:35;;;;;;;1999.90;999.90;;;13.20;99.90;;;;;;5100955;27;20089;-67
2023/08/08 02:12:00;;;;;;;1999.90;999.90;;;13.30;99.90;;;;;;5086762;28;20531;-67
2023/08/08 02:14:26;;;;;;;1999.90;999.90;;;13.30;99.90;;;;;;5088361;28;20507;-67
2023/08/08 02:16:51;;;;;;;1999.90;999.90;;;13.30;99.90;;;;;;5086902;28;20032;-67
2023/08/08 02:19:17;;;;;;;1999.90;999.90;;;13.30;99.90;;;;;;5094542;27;20044;-67
2023/08/08 02:21:43;;;;;;;1999.90;999.90;;;13.30;99.90;;;;;;5084113;28;20559;-67
2023/08/08 02:24:08;;;;;;;1999.90;999.90;;;13.30;99.90;;;;;;5087054;28;20032;-67
2023/08/08 02:26:34;;;;;;;1999.90;999.90;;;13.30;99.90;;;;;;5086026;28;20051;-67
2023/08/08 02:28:59;;;;;;;1999.90;999.90;;;13.30;99.90;;;;;;5065552;28;20036;-67
2023/08/08 02:31:25;;;;;;;1999.90;999.90;;;13.30;99.90;;;;;;5085638;28;20095;-67
2023/08/08 02:33:51;;;;;;;1999.90;999.90;;;13.30;99.90;;;;;;5076053;28;20067;-67
2023/08/08 02:36:18;;;;;;;1999.90;999.90;;;13.40;99.90;;;;;;5085023;28;20043;-67
2023/08/08 02:38:44;;;;;;;1999.90;999.90;;;13.40;99.90;;;;;;5083970;28;20040;-67
2023/08/08 02:41:10;;;;;;;1999.90;999.90;;;13.40;99.90;;;;;;5085337;28;20040;-67
2023/08/08 02:43:35;;;;;;;1999.90;999.90;;;13.40;99.90;;;;;;5086052;28;20058;-67
2023/08/08 02:46:01;;;;;;;1999.90;999.90;;;13.40;99.90;;;;;;5099455;28;20055;-67
2023/08/08 02:48:28;;;;;;;1999.90;999.90;;;13.40;99.90;;;;;;5063178;28;20071;-67
2023/08/08 02:50:54;;;;;;;1999.90;999.90;;;13.40;99.90;;;;;;5062271;28;20071;-67
2023/08/08 02:53:19;;;;;;;1999.90;999.90;;;13.40;99.90;;;;;;5085499;28;20079;-67
2023/08/08 02:55:45;;;;;;;1999.90;999.90;;;13.40;99.90;;;;;;5089031;28;20040;-67
2023/08/08 02:58:11;;;;;;;1999.90;999.90;;;13.40;99.90;;;;;;5099012;27;20044;-67
2023/08/08 03:00:36;;;;;;;1999.90;999.90;;;13.40;99.90;;;;;;5080278;28;20089;-67
2023/08/08 03:03:02;;;;;;;1999.90;999.90;;;13.40;99.90;;;;;;5082879;28;20046;-67
2023/08/08 03:05:28;;;;;;;1999.90;999.90;;;13.40;99.90;;;;;;5087289;28;20056;-66
2023/08/08 03:07:54;;;;;;;1999.90;999.90;;;13.30;99.90;;;;;;5083428;28;20437;-67
2023/08/08 03:10:19;;;;;;;1999.90;999.90;;;13.40;99.90;;;;;;5082036;28;20044;-67
2023/08/08 03:12:45;;;;;;;1999.90;999.90;;;13.40;99.90;;;;;;5087888;28;20653;-67
2023/08/08 03:15:11;;;;;;;1999.90;999.90;;;13.40;99.90;;;;;;5082401;28;20036;-67
2023/08/08 03:17:36;;;;;;;1999.90;999.90;;;13.40;99.90;;;;;;5092068;28;20044;-66
2023/08/08 03:20:05;;;;;;;1999.90;999.90;;;13.40;99.90;;;;;;5077899;28;20044;-67
2023/08/08 03:22:31;;;;;;;1999.90;999.90;;;13.40;99.90;;;;;;5085656;28;20043;-67
2023/08/08 03:24:56;;;;;;;1999.90;999.90;;;13.30;99.90;;;;;;5082361;28;20039;-67
2023/08/08 03:27:22;;;;;;;1999.90;999.90;;;13.20;99.90;;;;;;5081343;28;20579;-67
2023/08/08 03:29:48;;;;;;;1999.90;999.90;;;13.20;99.90;;;;;;5078324;28;20500;-67
2023/08/08 03:32:13;;;;;;;1999.90;999.90;;;13.20;99.90;;;;;;5081249;28;20036;-67
2023/08/08 03:34:39;;;;;;;1999.90;999.90;;;13.10;99.90;;;;;;5079664;28;20062;-67
2023/08/08 03:37:05;;;;;;;1999.90;999.90;;;13.20;99.90;;;;;;5080396;28;20047;-67
2023/08/08 03:39:30;;;;;;;1999.90;999.90;;;13.10;99.90;;;;;;5085238;28;20051;-67
2023/08/08 03:41:56;;;;;;;1999.90;999.90;;;13.10;99.90;;;;;;5092158;28;20040;-67
2023/08/08 03:44:22;;;;;;;1999.90;999.90;;;13.10;99.90;;;;;;5096169;28;20043;-67
2023/08/08 03:46:47;;;;;;;1999.90;999.90;;;13.10;99.90;;;;;;5066968;28;20048;-67
2023/08/08 03:49:13;;;;;;;1999.90;999.90;;;13.10;99.90;;;;;;5069632;28;20143;-67
2023/08/08 03:51:38;;;;;;;1999.90;999.90;;;13.10;99.90;;;;;;5064755;28;20586;-67
2023/08/08 03:54:04;;;;;;;1999.90;999.90;;;13.10;99.90;;;;;;5063702;28;20024;-67
2023/08/08 03:56:30;;;;;;;1999.90;999.90;;;13.10;99.90;;;;;;5066846;28;20438;-67
2023/08/08 03:58:56;;;;;;;1999.90;999.90;;;13.10;99.90;;;;;;5075671;28;20130;-67
2023/08/08 04:01:22;;;;;;;1999.90;999.90;;;13.00;99.90;;;;;;5066858;28;20040;-67
2023/08/08 04:03:48;;;;;;;1999.90;999.90;;;13.00;99.90;;;;;;5085213;28;20142;-67
2023/08/08 04:06:13;;;;;;;1999.90;999.90;;;13.00;99.90;;;;;;5089591;28;20500;-68
2023/08/08 04:08:39;;;;;;;1999.90;999.90;;;13.00;99.90;;;;;;5068020;28;20051;-67
2023/08/08 04:11:04;;;;;;;1999.90;999.90;;;13.10;99.90;;;;;;5078985;28;20387;-67
2023/08/08 04:13:30;;;;;;;1999.90;999.90;;;13.10;99.90;;;;;;5106610;27;20032;-67
2023/08/08 04:15:56;;;;;;;1999.90;999.90;;;13.10;99.90;;;;;;5106814;27;20048;-67
2023/08/08 04:18:21;;;;;;;1999.90;999.90;;;13.20;99.90;;;;;;5084310;28;20044;-67
2023/08/08 04:20:47;;;;;;;1999.90;999.90;;;13.20;99.90;;;;;;5102021;28;20136;-67
2023/08/08 04:23:13;;;;;;;1999.90;999.90;;;13.20;99.90;;;;;;5069873;28;20042;-67
2023/08/08 04:25:39;;;;;;;1999.90;999.90;;;13.30;99.90;;;;;;5067814;28;20085;-67
2023/08/08 04:28:05;;;;;;;1999.90;999.90;;;13.30;99.90;;;;;;5076353;28;20044;-67
2023/08/08 04:30:30;;;;;;;1999.90;999.90;;;13.20;99.90;;;;;;5089460;28;20074;-67
2023/08/08 04:32:56;;;;;;;1999.90;999.90;;;13.20;99.90;;;;;;5086919;28;20738;-67
2023/08/08 04:35:21;;;;;;;1999.90;999.90;;;13.20;99.90;;;;;;5088950;28;20039;-68
2023/08/08 04:37:47;;;;;;;1999.90;999.90;;;13.20;99.90;;;;;;5084826;28;20469;-67
2023/08/08 04:40:13;;;;;;;1999.90;999.90;;;13.20;99.90;;;;;;5078475;28;20551;-67
2023/08/08 04:42:39;;;;;;;1999.90;999.90;;;13.20;99.90;;;;;;5083138;28;20051;-67
2023/08/08 04:45:06;;;;;;;1999.90;999.90;;;13.20;99.90;;;;;;5084302;28;20040;-67
2023/08/08 04:47:31;;;;;;;1999.90;999.90;;;13.20;99.90;;;;;;5088537;28;20089;-67
2023/08/08 04:49:57;;;;;;;1999.90;999.90;;;13.20;99.90;;;;;;5066485;28;20565;-67
2023/08/08 04:52:23;;;;;;;1999.90;999.90;;;13.20;99.90;;;;;;5076919;28;20055;-67
2023/08/08 04:54:48;;;;;;;1999.90;999.90;;;13.20;99.90;;;;;;5074017;28;20044;-67
2023/08/08 04:57:14;;;;;;;1999.90;999.90;;;13.30;99.90;;;;;;5070124;28;20407;-67
2023/08/08 04:59:39;;;;;;;1999.90;999.90;;;13.30;99.90;;;;;;5087899;28;20040;-67
2023/08/08 05:02:05;;;;;;;1999.90;999.90;;;13.30;99.90;;;;;;5088401;28;20051;-67
2023/08/08 05:04:31;;;;;;;1999.90;999.90;;;13.30;99.90;;;;;;5097514;28;20622;-67
2023/08/08 05:06:57;;;;;;;1999.90;999.90;;;13.20;99.90;;;;;;5088495;28;20048;-67
2023/08/08 05:09:26;;;;;;;1999.90;999.90;;;13.20;99.90;;;;;;5084244;28;20085;-67
2023/08/08 05:11:52;;;;;;;1999.90;999.90;;;13.20;99.90;;;;;;5086140;28;20118;-67
2023/08/08 05:14:18;;;;;;;1999.90;999.90;;;13.20;99.90;;;;;;5079860;28;20044;-67
2023/08/08 05:16:43;;;;;;;1999.90;999.90;;;13.20;99.90;;;;;;5088834;28;20055;-67
2023/08/08 05:19:09;;;;;;;1999.90;999.90;;;13.20;99.90;;;;;;5065931;28;20074;-67
2023/08/08 05:21:35;;;;;;;1999.90;999.90;;;13.20;99.90;;;;;;5083152;28;20036;-67
2023/08/08 05:24:00;;;;;;;1999.90;999.90;;;13.20;99.90;;;;;;5066268;28;20051;-67
2023/08/08 05:26:26;;;;;;;1999.90;999.90;;;13.30;99.90;;;;;;5073206;28;20044;-67
2023/08/08 05:28:52;;;;;;;1999.90;999.90;;;13.30;99.90;;;;;;5084646;27;20035;-67
2023/08/08 05:31:17;;;;;;;1999.90;999.90;;;13.40;99.90;;;;;;5062544;28;20036;-69
2023/08/08 05:33:43;;;;;;;1999.90;999.90;;;13.40;99.90;;;;;;5058532;28;20048;-67
2023/08/08 05:36:09;;;;;;;1999.90;999.90;;;13.40;99.90;;;;;;5068612;28;20041;-68
2023/08/08 05:38:34;;;;;;;1999.90;999.90;;;13.60;99.90;;;;;;5051613;28;20044;-67
2023/08/08 05:41:00;;;;;;;1999.90;999.90;;;13.70;99.90;;;;;;5069134;28;20472;-67
2023/08/08 05:43:27;;;;;;;1999.90;999.90;;;13.70;99.90;;;;;;5049917;28;20463;-67
2023/08/08 05:45:53;;;;;;;1999.90;999.90;;;13.80;99.90;;;;;;5068766;28;20055;-67
2023/08/08 05:48:18;;;;;;;1999.90;999.90;;;13.90;99.90;;;;;;5069224;28;20040;-67
2023/08/08 05:50:44;;;;;;;1999.90;999.90;;;14.00;99.90;;;;;;5076304;28;20044;-67
2023/08/08 05:53:10;;;;;;;1999.90;999.90;;;14.20;99.90;;;;;;5078344;28;20451;-67
2023/08/08 05:55:36;;;;;;;1999.90;999.90;;;14.40;99.90;;;;;;5081558;28;20131;-67
2023/08/08 05:58:01;;;;;;;1999.90;999.90;;;14.50;99.90;;;;;;5085356;28;20047;-67
2023/08/08 06:00:27;;;;;;;1999.90;999.90;;;14.60;99.90;;;;;;5102296;28;20481;-67
2023/08/08 06:02:53;;;;;;;1999.90;999.90;;;14.70;99.90;;;;;;5083027;28;20048;-67
2023/08/08 06:05:22;;;;;;;1999.90;999.90;;;14.70;99.90;;;;;;5084282;28;20073;-67
2023/08/08 06:07:48;;;;;;;1999.90;999.90;;;14.70;99.90;;;;;;5087372;28;20044;-67
2023/08/08 06:10:14;;;;;;;1999.90;999.90;;;14.80;99.90;;;;;;5090709;28;20550;-67
2023/08/08 06:12:39;;;;;;;1999.90;999.90;;;14.80;99.90;;;;;;5083557;28;20604;-67
2023/08/08 06:15:06;;;;;;;1999.90;999.90;;;14.90;99.90;;;;;;5079761;28;20134;-67
2023/08/08 06:17:31;;;;;;;1999.90;999.90;;;15.00;99.90;;;;;;5087986;28;20046;-67
2023/08/08 06:19:57;;;;;;;1999.90;999.90;;;15.00;99.90;;;;;;5083936;28;20044;-67
2023/08/08 06:22:23;;;;;;;1999.90;999.90;;;15.10;99.90;;;;;;5078576;28;20122;-67
2023/08/08 06:24:49;;;;;;;1999.90;999.90;;;15.20;99.90;;;;;;5064371;28;20044;-67
2023/08/08 06:27:15;;;;;;;1999.90;999.90;;;15.30;99.90;;;;;;5081350;28;20776;-67
2023/08/08 06:29:41;;;;;;;1999.90;999.90;;;15.40;99.90;;;;;;5080422;28;20039;-67
2023/08/08 06:32:07;;;;;;;1999.90;999.90;;;15.70;99.90;;;;;;5084739;28;20495;-67
2023/08/08 06:34:33;;;;;;;1999.90;999.90;;;16.30;99.90;;;;;;5086537;28;20046;-68
2023/08/08 06:36:58;;;;;;;1999.90;999.90;;;16.70;99.90;;;;;;5081700;28;20803;-67
2023/08/08 06:39:24;;;;;;;1999.90;999.90;;;16.80;99.90;;;;;;5074383;28;20456;-67
2023/08/08 06:41:50;;;;;;;1999.90;999.90;;;16.80;99.90;;;;;;5080543;28;20052;-67
2023/08/08 06:44:16;;;;;;;1999.90;999.90;;;16.70;99.90;;;;;;5086221;28;20377;-67
2023/08/08 06:46:41;;;;;;;1999.90;999.90;;;16.60;99.90;;;;;;5094030;28;20155;-67
2023/08/08 06:49:08;;;;;;;1999.90;999.90;;;16.40;99.90;;;;;;5087904;28;20028;-67
2023/08/08 06:51:35;;;;;;;1999.90;999.90;;;16.40;99.90;;;;;;5097304;28;20036;-67
2023/08/08 06:54:00;;;;;;;1999.90;999.90;;;16.40;99.90;;;;;;5067047;28;20385;-67
2023/08/08 06:56:26;;;;;;;1999.90;999.90;;;16.80;99.90;;;;;;5078003;28;20058;-67
2023/08/08 06:58:52;;;;;;;1999.90;999.90;;;17.40;99.90;;;;;;5082878;28;20043;-67
2023/08/08 07:01:18;;;;;;;1999.90;999.90;;;18.00;99.90;;;;;;5084841;28;20118;-67
2023/08/08 07:03:43;;;;;;;1999.90;999.90;;;18.60;99.90;;;;;;5103067;28;20127;-67
2023/08/08 07:06:10;;;;;;;1999.90;999.90;;;19.10;99.90;;;;;;5100759;28;20139;-67
2023/08/08 07:08:37;;;;;;;1999.90;999.90;;;19.60;99.90;;;;;;5080852;28;20044;-68
2023/08/08 07:11:02;;;;;;;1999.90;999.90;;;20.10;99.90;;;;;;5077306;28;20039;-67
2023/08/08 07:13:28;;;;;;;1999.90;999.90;;;20.30;99.90;;;;;;5099784;28;20036;-68
2023/08/08 07:15:53;;;;;;;1999.90;999.90;;;20.50;99.90;;;;;;5099960;28;20440;-68
2023/08/08 07:18:19;;;;;;;1999.90;999.90;;;20.80;99.90;;;;;;5086342;28;20522;-68
2023/08/08 07:20:45;;;;;;;1999.90;999.90;;;21.20;99.90;;;;;;5086632;28;20070;-67
2023/08/08 07:23:10;;;;;;;1999.90;999.90;;;20.40;99.90;;;;;;5067690;28;20403;-67
2023/08/08 07:25:36;;;;;;;1040.85;539.05;;;19.70;99.90;;;;;;5082342;28;20040;-67
2023/08/08 07:28:02;;;;;;;1999.90;999.90;;;19.00;99.90;;;;;;5084613;28;20511;-67
2023/08/08 07:30:27;;;;;;;1999.90;999.90;;;18.60;99.90;;;;;;5076495;28;20115;-68
2023/08/08 07:32:53;;;;;;;1999.90;999.90;;;18.20;99.90;;;;;;5085764;28;20172;-68
2023/08/08 07:35:19;;;;;;;1999.90;999.90;;;18.00;99.90;;;;;;5083339;28;20050;-67
2023/08/08 07:37:45;;;;;;;1999.90;999.90;;;17.90;99.90;;;;;;5077611;28;20068;-68
2023/08/08 07:40:17;;;;;;;1999.90;999.90;;;17.90;99.90;;;;;;5086719;28;20114;-68
2023/08/08 07:42:43;;;;;;;1999.90;999.90;;;18.00;99.90;;;;;;5092557;28;20047;-68
2023/08/08 07:45:09;;;;;;;1999.90;999.90;;;18.20;99.90;;;;;;5079286;28;20040;-68
2023/08/08 07:47:34;;;;;;;1999.90;999.90;;;18.20;99.90;;;;;;5088187;28;20584;-69
2023/08/08 07:50:00;;;;;;;1999.90;999.90;;;18.10;99.90;;;;;;5086210;28;20040;-68
2023/08/08 07:52:26;;;;;;;1999.90;999.90;;;18.00;99.90;;;;;;5064900;28;20051;-68
2023/08/08 07:54:51;;;;;;;1999.90;999.90;;;18.10;99.90;;;;;;5106096;27;20484;-68
2023/08/08 07:57:17;;;;;;;1999.90;999.90;;;18.00;99.90;;;;;;5098145;27;20501;-68
2023/08/08 07:59:42;;;;;;;1999.90;999.90;;;18.00;99.90;;;;;;5074823;28;20058;-68
2023/08/08 08:02:08;;;;;;;1999.90;999.90;;;18.00;99.90;;;;;;5067200;28;20044;-67
2023/08/08 08:04:35;;;;;;;1999.90;999.90;;;18.00;99.90;;;;;;5096252;28;20060;-68
2023/08/08 08:07:00;;;;;;;1999.90;999.90;;;18.00;99.90;;;;;;5091009;28;20239;-68
2023/08/08 08:09:26;;;;;;;1999.90;999.90;;;18.00;99.90;;;;;;5097065;28;20036;-68
2023/08/08 08:11:52;;;;;;;1999.90;999.90;;;17.90;99.90;;;;;;5085900;28;20044;-67
2023/08/08 08:14:17;;;;;;;1999.90;999.90;;;17.90;99.90;;;;;;5089281;28;20454;-67
2023/08/08 08:16:45;;;;;;;1999.90;999.90;;;18.00;99.90;;;;;;5079993;28;20032;-67
2023/08/08 08:19:10;;;;;;;1999.90;999.90;;;18.00;99.90;;;;;;5087049;28;20048;-68
2023/08/08 08:21:36;;;;;;;1999.90;999.90;;;17.80;99.90;;;;;;5081019;28;20043;-67
2023/08/08 08:24:02;;;;;;;1999.90;999.90;;;17.70;99.90;;;;;;5088267;28;20576;-68
2023/08/08 08:26:27;;;;;;;1999.90;999.90;;;17.60;99.90;;;;;;5074420;28;20072;-68
2023/08/08 08:28:53;;;;;;;1999.90;999.90;;;17.60;99.90;;;;;;5109029;27;20032;-67
2023/08/08 08:31:19;;;;;;;1999.90;999.90;;;17.50;99.90;;;;;;5102535;28;20480;-68
2023/08/08 08:33:44;;;;;;;1999.90;999.90;;;17.50;99.90;;;;;;5099127;27;20114;-68
2023/08/08 08:36:10;;;;;;;1999.90;999.90;;;17.50;99.90;;;;;;5056017;28;20048;-67
2023/08/08 08:38:36;;;;;;;1999.90;999.90;;;17.60;99.90;;;;;;5101857;27;20036;-68
2023/08/08 08:41:03;;;;;;;1999.90;999.90;;;17.60;99.90;;;;;;5079616;28;20484;-68
2023/08/08 08:43:30;;;;;;;1999.90;999.90;;;17.60;99.90;;;;;;5082524;28;20498;-67
2023/08/08 08:46:00;;;;;;;1999.90;999.90;;;17.70;99.90;;;;;;5091542;28;20040;-67
2023/08/08 08:48:25;;;;;;;1999.90;999.90;;;18.00;99.90;;;;;;5084353;28;20129;-68
2023/08/08 08:50:52;;;;;;;1999.90;999.90;;;18.20;99.90;;;;;;5090290;28;20044;-68
2023/08/08 08:53:18;;;;;;;1999.90;999.90;;;18.40;99.90;;;;;;5091376;28;20167;-68
2023/08/08 08:55:44;;;;;;;1999.90;999.90;;;18.60;99.90;;;;;;5087550;28;20123;-68
2023/08/08 08:58:12;;;;;;;1999.90;999.90;;;19.20;99.90;;;;;;5077354;28;20110;-68
2023/08/08 09:00:40;;;;;;;1999.90;999.90;;;19.70;99.90;;;;;;5086994;28;20039;-68
2023/08/08 09:03:06;;;;;;;142.68;136.40;;;20.10;99.90;;;;;;5081162;28;20139;-68
2023/08/08 09:05:32;;;;;;;58.42;55.72;;;20.20;99.90;;;;;;5092921;28;20150;-67
2023/08/08 09:07:58;;;;;;;63.92;60.80;;;19.80;99.90;;;;;;5083286;28;20044;-68
2023/08/08 09:10:25;;;;;;;99.40;94.35;;;19.40;99.90;;;;;;5083790;28;20050;-68
2023/08/08 09:12:50;;;;;;;71.05;67.72;;;18.90;99.90;;;;;;5088582;28;20028;-68
2023/08/08 09:15:16;;;;;;;152.30;140.10;;;18.70;99.90;;;;;;5091469;28;20086;-68
2023/08/08 09:17:43;;;;;;;1999.90;999.90;;;19.10;99.90;;;;;;5077871;28;20043;-67
2023/08/08 09:20:13;;;;;;;1999.90;999.90;;;19.20;99.90;;;;;;5081083;28;20047;-68
2023/08/08 09:22:38;;;;;;;1999.90;999.90;;;19.70;99.90;;;;;;5082567;28;20050;-68
2023/08/08 09:25:06;;;;;;;1999.90;999.90;;;20.10;99.90;;;;;;5076195;28;20040;-68
2023/08/08 09:27:32;;;;;;;59.38;56.65;;;20.70;99.90;;;;;;5091707;28;20047;-68
2023/08/08 09:29:57;;;;;;;86.97;83.07;;;21.10;99.90;;;;;;5099099;28;20040;-67
2023/08/08 09:32:29;;;;;;;80.63;76.28;;;21.10;99.90;;;;;;5080783;28;20062;-67
2023/08/08 09:34:56;;;;;;;61.33;58.42;;;21.10;99.90;;;;;;5087154;28;20036;-68
2023/08/08 09:37:22;;;;;;;74.47;70.38;;;21.10;99.90;;;;;;5088028;28;20040;-67
2023/08/08 09:39:56;;;;;;;128.75;118.90;;;20.70;99.90;;;;;;5081791;28;20051;-68
2023/08/08 09:42:22;;;;;;;103.47;98.75;;;20.00;99.90;;;;;;5082521;28;20043;-67
2023/08/08 09:44:47;;;;;;;1542.72;790.88;;;19.20;99.90;;;;;;5087465;28;20481;-67
2023/08/08 09:47:14;;;;;;;1999.90;999.90;;;18.70;99.90;;;;;;5075470;28;20036;-67
2023/08/08 09:49:41;;;;;;;1999.90;999.90;;;18.70;99.90;;;;;;5065672;28;20548;-67
2023/08/08 09:52:07;;;;;;;1999.90;999.90;;;19.10;99.90;;;;;;5080460;28;20122;-68
2023/08/08 09:54:33;;;;;;;1162.35;654.90;;;19.60;99.90;;;;;;5074727;28;20062;-68
2023/08/08 09:56:59;;;;;;;93.03;88.80;;;19.80;99.90;;;;;;5076418;28;20131;-68
2023/08/08 09:59:25;;;;;;;172.40;164.57;;;19.60;99.90;;;;;;5082099;28;20056;-68
2023/08/08 10:01:52;;;;;;;92.30;88.13;;;19.30;99.90;;;;;;5085189;28;20039;-68
2023/08/08 10:04:18;;;;;;;67.30;63.92;;;19.00;99.90;;;;;;5093398;28;20052;-68
2023/08/08 10:06:44;;;;;;;108.10;102.18;;;18.80;99.90;;;;;;5072363;28;20052;-67
2023/08/08 10:09:10;;;;;;;213.02;200.13;;;18.40;99.90;;;;;;5096059;28;20550;-67
2023/08/08 10:11:36;;;;;;;1999.90;999.90;;;18.10;99.90;;;;;;5065395;28;20412;-68
2023/08/08 10:14:04;;;;;;;1999.90;999.90;;;17.80;99.90;;;;;;5086873;28;20047;-68
2023/08/08 10:16:33;;;;;;;1999.90;999.90;;;17.90;99.90;;;;;;5075675;28;20042;-68
2023/08/08 10:19:01;;;;;;;1999.90;999.90;;;18.10;99.90;;;;;;5084421;28;20101;-67
2023/08/08 10:21:28;;;;;;;1999.90;999.90;;;18.60;99.90;;;;;;5075954;28;20411;-67
2023/08/08 10:24:05;;;;;;;1999.90;999.90;;;19.00;99.90;;;;;;5082717;28;20395;-67
2023/08/08 10:26:31;;;;;;;1999.90;999.90;;;19.30;99.90;;;;;;5083691;28;20043;-67
2023/08/08 10:28:59;;;;;;;47.67;45.45;;;19.10;99.90;;;;;;5070725;28;20492;-67
2023/08/08 10:31:24;;;;;;;1999.90;999.90;;;18.80;99.90;;;;;;5077307;28;20047;-67
2023/08/08 10:34:00;;;;;;;1065.38;561.78;;;18.60;99.90;;;;;;5084495;28;20036;-67
2023/08/08 10:36:25;;;;;;;58.58;55.65;;;18.90;99.90;;;;;;5080364;28;20417;-66
2023/08/08 10:38:52;;;;;;;101.47;96.05;;;19.50;99.90;;;;;;5074705;28;20432;-67
2023/08/08 10:41:20;;;;;;;158.68;146.93;;;19.60;99.90;;;;;;5074792;28;20062;-67
2023/08/08 10:43:56;;;;;;;65.63;62.53;;;19.50;99.90;;;;;;5080635;28;20056;-67
2023/08/08 10:46:30;;;;;;;53.67;50.88;;;19.30;99.90;;;;;;5079339;28;20575;-67
2023/08/08 10:49:04;;;;;;;159.50;146.43;;;19.00;99.90;;;;;;5077075;28;20107;-66
2023/08/08 10:51:33;;;;;;;43.78;41.35;;;19.20;99.90;;;;;;5077297;28;20537;-68
2023/08/08 10:54:02;;;;;;;65.90;62.78;;;19.60;99.90;;;;;;5095499;28;20505;-67
2023/08/08 10:56:31;;;;;;;79.55;75.85;;;20.10;99.90;;;;;;5070437;28;20043;-67
2023/08/08 10:58:56;;;;;;;1048.15;546.00;;;20.60;99.90;;;;;;5082769;28;20040;-67
2023/08/08 11:01:25;;;;;;;66.93;63.83;;;20.80;99.90;;;;;;5093176;28;20047;-67
2023/08/08 11:03:51;;;;;;;161.70;148.73;;;20.90;99.90;;;;;;5087240;28;20048;-68
2023/08/08 11:06:18;;;;;;;82.75;79.05;;;20.60;99.90;;;;;;5081742;28;20048;-67
2023/08/08 11:08:44;;;;;;;56.35;53.45;;;20.40;99.90;;;;;;5082275;28;20412;-68
2023/08/08 11:11:10;;;;;;;99.00;94.18;;;20.30;99.90;;;;;;5074871;28;20043;-68
2023/08/08 11:13:35;;;;;;;45.47;42.83;;;20.00;99.90;;;;;;5078287;28;20028;-68
2023/08/08 11:16:01;;;;;;;75.43;71.68;;;19.80;99.90;;;;;;5075404;28;20070;-68
2023/08/08 11:18:27;;;;;;;67.68;64.68;;;19.80;99.90;;;;;;5081848;28;20043;-68
2023/08/08 11:20:53;;;;;;;54.08;51.28;;;20.10;99.90;;;;;;5075935;28;20106;-67
2023/08/08 11:23:20;;;;;;;173.73;156.35;;;20.40;99.90;;;;;;5081138;28;20044;-68
2023/08/08 11:25:47;;;;;;;106.47;101.63;;;20.70;99.90;;;;;;5077690;28;20130;-68
2023/08/08 11:28:14;;;;;;;51.95;49.17;;;20.60;99.90;;;;;;5073130;28;20395;-67
2023/08/08 11:30:45;;;;;;;36.92;34.92;;;20.20;99.90;;;;;;5082054;28;20039;-67
2023/08/08 11:33:14;;;;;;;61.38;58.38;;;20.40;99.90;;;;;;5087084;28;20434;-66
2023/08/08 11:35:46;;;;;;;57.08;54.38;;;20.60;99.90;;;;;;5081814;28;20438;-67
2023/08/08 11:38:13;;;;;;;110.63;105.90;;;20.80;99.90;;;;;;5076123;28;20055;-68
2023/08/08 11:40:39;;;;;;;132.80;124.47;;;20.90;99.90;;;;;;5083980;28;20123;-67
2023/08/08 11:43:05;;;;;;;67.63;64.43;;;20.60;99.90;;;;;;5073511;28;20048;-67
2023/08/08 11:45:32;;;;;;;77.82;74.38;;;20.20;99.90;;;;;;5078545;28;20098;-67
2023/08/08 11:47:57;;;;;;;60.38;57.42;;;20.00;99.90;;;;;;5076374;28;20039;-67
2023/08/08 11:50:25;;;;;;;48.72;46.33;;;20.20;99.90;;;;;;5087820;28;20043;-67
2023/08/08 11:52:54;;;;;;;159.75;151.43;;;20.60;99.90;;;;;;5087227;28;20380;-67
2023/08/08 11:55:22;;;;;;;104.78;100.28;;;20.90;99.90;;;;;;5079143;28;20076;-67
2023/08/08 11:57:49;;;;;;;151.52;144.88;;;21.00;99.90;;;;;;5079554;28;20040;-67
2023/08/08 12:00:15;;;;;;;101.93;97.13;;;20.70;99.90;;;;;;5077950;28;20044;-67